EmailTwitter


Observations de surface / Québec / EGVN

Régions: Québec | Canada | États-Unis | Europe | France | UK | Elsewhere
Station
Affichage
Infos & localisation pour EGVN | Aide pour décoder les METARs

Observations prises le 2017-02-24 à 09H50 UTC à BRIZE NORTON RA, UK (EGVN)

Température: 6.0 Celsius

Point de rosée: 0.0 Celsius

Humidité relative: 65%

Facteur vent: 3.

Vents: Ouest-nord-ouest à 13 km/h ou 7 noeuds.

Pression au niveau moyen de la mer: 101.60 kilopascals.

Observation METAR:

EGVN 240950Z 29007KT CAVOK 06/00 Q1016 BLU NOSIG=